Time;durP1;ratioP1;P1;durP2;ratioP2;P2;SDS_P1;SDS_P2;PMS_P1;PMS_P2;Temp;Humidity;BMP_temperature;BMP_pressure;BME280_temperature;BME280_humidity;BME280_pressure;Samples;Min_cycle;Max_cycle;Signal;HPM_P1;HPM_P2
2023/07/19 00:03:15;;;;;;;5.43;2.20;;;;;15.70;100969.00;;;;10105523;29;20231;-74
2023/07/19 00:08:16;;;;;;;9.02;2.17;;;;;15.70;100966.00;;;;10115084;29;20227;-76
2023/07/19 00:13:17;;;;;;;3.77;2.27;;;;;15.70;100955.00;;;;10119569;29;20243;-77
2023/07/19 00:18:19;;;;;;;4.82;1.98;;;;;15.70;100947.00;;;;10109941;29;20219;-79
2023/07/19 00:23:20;;;;;;;3.65;2.00;;;;;15.60;100943.00;;;;10129941;29;20226;-78
2023/07/19 00:28:21;;;;;;;4.60;2.13;;;;;15.60;100938.00;;;;10135686;29;20200;-76
2023/07/19 00:33:22;;;;;;;3.33;2.10;;;;;15.50;100933.00;;;;10115005;29;20562;-77
2023/07/19 00:38:24;;;;;;;7.90;2.70;;;;;15.50;100933.00;;;;10126002;29;20294;-77
2023/07/19 00:43:25;;;;;;;7.63;2.50;;;;;15.50;100934.00;;;;10121098;29;20324;-74
2023/07/19 00:48:28;;;;;;;4.85;2.03;;;;;15.50;100926.00;;;;10132179;29;20214;-73
2023/07/19 00:53:30;;;;;;;5.43;2.40;;;;;15.60;100926.00;;;;10112332;29;20215;-76
2023/07/19 00:58:32;;;;;;;6.27;2.27;;;;;15.60;100920.00;;;;10116279;29;20633;-78
2023/07/19 01:03:33;;;;;;;5.07;2.33;;;;;15.60;100923.00;;;;10131078;29;20252;-74
2023/07/19 01:08:34;;;;;;;5.37;2.77;;;;;15.70;100921.00;;;;10121021;29;20211;-73
2023/07/19 01:13:36;;;;;;;8.33;3.50;;;;;15.80;100912.00;;;;10129550;29;20219;-74
2023/07/19 01:18:37;;;;;;;11.32;2.80;;;;;15.80;100917.00;;;;10130568;29;20745;-76
2023/07/19 01:23:39;;;;;;;6.50;3.10;;;;;15.80;100911.00;;;;10109803;29;20694;-74
2023/07/19 01:28:40;;;;;;;6.27;2.67;;;;;15.70;100913.00;;;;10095191;29;20216;-73
2023/07/19 01:33:42;;;;;;;9.97;3.00;;;;;15.60;100912.00;;;;10124936;29;20266;-73
2023/07/19 01:38:43;;;;;;;9.50;2.93;;;;;15.50;100902.00;;;;10141536;29;20199;-73
2023/07/19 01:43:44;;;;;;;7.07;2.85;;;;;15.40;100906.00;;;;10141205;29;20219;-75
2023/07/19 01:48:46;;;;;;;6.83;2.90;;;;;15.50;100897.00;;;;10133529;29;20207;-73
2023/07/19 01:53:47;;;;;;;8.45;3.10;;;;;15.50;100894.00;;;;10136663;29;20203;-73
2023/07/19 01:58:49;;;;;;;9.53;3.20;;;;;15.50;100896.00;;;;10145235;29;20219;-73
2023/07/19 02:03:51;;;;;;;6.13;2.77;;;;;15.50;100893.00;;;;10107134;29;20713;-74
2023/07/19 02:08:52;;;;;;;6.80;3.13;;;;;15.50;100883.00;;;;10131485;29;20208;-73
2023/07/19 02:13:53;;;;;;;3.97;2.70;;;;;15.40;100882.00;;;;10135587;29;20214;-74
2023/07/19 02:18:55;;;;;;;6.90;3.27;;;;;15.30;100874.00;;;;10144965;29;20705;-74
2023/07/19 02:23:57;;;;;;;4.93;2.70;;;;;15.30;100874.00;;;;10136687;29;20294;-74
2023/07/19 02:28:58;;;;;;;6.07;3.17;;;;;15.10;100866.00;;;;10109672;29;20569;-74
2023/07/19 02:33:59;;;;;;;9.73;3.17;;;;;15.10;100880.00;;;;10137891;29;20283;-74
2023/07/19 02:39:03;;;;;;;6.67;2.90;;;;;15.10;100880.00;;;;10130053;29;20339;-74
2023/07/19 02:44:04;;;;;;;5.80;2.90;;;;;15.10;100880.00;;;;10119791;29;20311;-73
2023/07/19 02:49:06;;;;;;;9.50;3.10;;;;;15.10;100874.00;;;;10118744;29;20255;-75
2023/07/19 02:54:07;;;;;;;4.90;3.00;;;;;15.10;100871.00;;;;10125857;29;20206;-74
2023/07/19 02:59:09;;;;;;;6.10;3.13;;;;;15.20;100871.00;;;;10127102;29;20570;-74
2023/07/19 03:04:12;;;;;;;6.87;3.10;;;;;15.30;100882.00;;;;10135457;29;20278;-74
2023/07/19 03:09:15;;;;;;;4.63;2.77;;;;;15.30;100888.00;;;;10107862;29;20208;-74
2023/07/19 03:14:16;;;;;;;5.00;2.80;;;;;15.40;100897.00;;;;10127607;29;20519;-74
2023/07/19 03:19:18;;;;;;;7.53;2.90;;;;;15.50;100883.00;;;;10144490;29;20203;-73
2023/07/19 03:24:19;;;;;;;8.17;3.43;;;;;15.50;100885.00;;;;10126143;29;20223;-73
2023/07/19 03:29:20;;;;;;;7.93;3.43;;;;;15.60;100899.00;;;;10131368;29;20282;-73
2023/07/19 03:34:22;;;;;;;8.10;2.67;;;;;15.70;100903.00;;;;10108660;29;20571;-73
2023/07/19 03:39:23;;;;;;;6.23;2.67;;;;;15.80;100898.00;;;;10120374;29;20208;-74
2023/07/19 03:44:25;;;;;;;6.97;2.53;;;;;15.90;100905.00;;;;10135117;29;20223;-73
2023/07/19 03:49:27;;;;;;;5.00;2.55;;;;;15.90;100905.00;;;;10105393;29;20249;-74
2023/07/19 03:54:28;;;;;;;5.10;2.78;;;;;15.90;100918.00;;;;10118006;29;20199;-74
2023/07/19 03:59:30;;;;;;;3.90;2.50;;;;;15.90;100917.00;;;;10136680;29;20704;-74
2023/07/19 04:04:31;;;;;;;5.07;3.17;;;;;16.00;100923.00;;;;10111828;29;20748;-73
2023/07/19 04:09:33;;;;;;;4.38;2.92;;;;;16.10;100919.00;;;;10133768;29;20654;-73
2023/07/19 04:14:34;;;;;;;4.82;2.70;;;;;16.40;100926.00;;;;10133069;29;20547;-74
2023/07/19 04:19:36;;;;;;;5.97;3.08;;;;;16.60;100932.00;;;;10131835;29;20208;-74
2023/07/19 04:24:37;;;;;;;5.03;2.47;;;;;16.80;100936.00;;;;10112019;29;20705;-76
2023/07/19 04:29:39;;;;;;;5.00;2.63;;;;;16.90;100935.00;;;;10131085;29;20231;-76
2023/07/19 04:34:41;;;;;;;6.97;2.67;;;;;17.00;100940.00;;;;10096851;29;20654;-74
2023/07/19 04:39:43;;;;;;;5.20;2.58;;;;;17.10;100943.00;;;;10130424;29;20320;-74
2023/07/19 04:44:46;;;;;;;5.72;2.58;;;;;17.20;100942.00;;;;10129882;29;20682;-74
2023/07/19 04:49:48;;;;;;;7.93;2.30;;;;;17.30;100942.00;;;;10113605;29;20564;-74
2023/07/19 04:54:49;;;;;;;8.77;2.50;;;;;17.50;100939.00;;;;10103025;29;20207;-74
2023/07/19 04:59:50;;;;;;;5.43;2.35;;;;;17.70;100940.00;;;;10147856;29;20207;-75
2023/07/19 05:04:53;;;;;;;7.13;2.75;;;;;17.80;100940.00;;;;10116586;29;20678;-74
2023/07/19 05:09:55;;;;;;;7.32;3.25;;;;;17.80;100942.00;;;;10115482;29;20211;-74
2023/07/19 05:14:56;;;;;;;3.63;2.25;;;;;18.00;100941.00;;;;10138135;29;20228;-74
2023/07/19 05:19:58;;;;;;;9.77;3.10;;;;;18.40;100942.00;;;;10122026;29;20215;-74
2023/07/19 05:25:00;;;;;;;7.15;2.42;;;;;18.90;100944.00;;;;10099719;29;20211;-75
2023/07/19 05:30:02;;;;;;;8.20;2.42;;;;;19.10;100940.00;;;;10121388;29;20203;-76
2023/07/19 05:35:05;;;;;;;5.50;2.40;;;;;19.30;100949.00;;;;10120185;29;20203;-74
2023/07/19 05:40:08;;;;;;;6.63;2.78;;;;;19.30;100952.00;;;;10128640;29;20258;-75
2023/07/19 05:45:09;;;;;;;10.27;3.15;;;;;19.20;100945.00;;;;10147208;29;20605;-74
2023/07/19 05:50:11;;;;;;;9.38;2.83;;;;;19.30;100943.00;;;;10127498;29;20224;-74
2023/07/19 05:55:12;;;;;;;7.25;2.40;;;;;19.60;100943.00;;;;10117926;29;20666;-75
2023/07/19 06:00:25;;;;;;;6.50;2.05;;;;;19.50;100945.00;;;;10155801;29;20213;-74
2023/07/19 06:05:26;;;;;;;6.95;2.83;;;;;19.50;100947.00;;;;10135094;29;20211;-74
2023/07/19 06:10:27;;;;;;;6.03;2.20;;;;;19.60;100951.00;;;;10127721;29;20207;-74
2023/07/19 06:15:31;;;;;;;7.38;2.05;;;;;19.70;100952.00;;;;10127749;29;20246;-74
2023/07/19 06:20:33;;;;;;;4.10;1.85;;;;;19.80;100943.00;;;;10120472;29;20279;-76
2023/07/19 06:25:34;;;;;;;6.43;2.45;;;;;19.90;100938.00;;;;10134305;29;20238;-74
2023/07/19 06:30:36;;;;;;;5.93;2.00;;;;;20.00;100947.00;;;;10128996;29;20607;-74
2023/07/19 06:35:37;;;;;;;7.00;2.15;;;;;20.10;100940.00;;;;10159612;29;20214;-74
2023/07/19 06:40:38;;;;;;;5.53;1.85;;;;;20.20;100935.00;;;;10165148;29;20223;-75
2023/07/19 06:45:39;;;;;;;3.78;1.60;;;;;20.40;100937.00;;;;10134032;29;20222;-74
2023/07/19 06:50:41;;;;;;;4.57;1.90;;;;;20.40;100941.00;;;;10131160;29;20204;-75
2023/07/19 06:55:42;;;;;;;6.32;1.92;;;;;20.60;100939.00;;;;10094685;29;20667;-74
2023/07/19 07:00:44;;;;;;;4.05;1.80;;;;;20.70;100945.00;;;;10128938;29;20242;-77
2023/07/19 07:05:46;;;;;;;4.50;2.03;;;;;21.10;100944.00;;;;10141765;29;20203;-75
2023/07/19 07:10:47;;;;;;;3.80;1.95;;;;;21.40;100938.00;;;;10133340;29;20207;-74
2023/07/19 07:15:51;;;;;;;4.30;1.58;;;;;21.70;100934.00;;;;10145731;29;20227;-74
2023/07/19 07:20:53;;;;;;;4.68;2.05;;;;;21.70;100949.00;;;;10117761;29;20219;-76
2023/07/19 07:25:54;;;;;;;4.53;2.10;;;;;22.00;100952.00;;;;10126170;29;20215;-74
2023/07/19 07:30:56;;;;;;;5.28;1.88;;;;;22.30;100946.00;;;;10128579;29;20214;-75
2023/07/19 07:35:57;;;;;;;4.13;1.77;;;;;23.30;100945.00;;;;10133224;29;20211;-74
2023/07/19 07:41:06;;;;;;;7.60;2.20;;;;;24.00;100944.00;;;;10131490;29;20230;-77
2023/07/19 07:46:08;;;;;;;5.75;1.80;;;;;24.20;100941.00;;;;10119551;29;20217;-75
2023/07/19 07:51:11;;;;;;;4.88;1.98;;;;;24.40;100950.00;;;;10127603;29;20218;-74
2023/07/19 07:56:13;;;;;;;3.65;2.40;;;;;25.60;100937.00;;;;10136593;29;20200;-74
2023/07/19 08:01:15;;;;;;;6.07;1.90;;;;;26.30;100940.00;;;;10136356;29;20612;-75
2023/07/19 08:06:16;;;;;;;5.85;1.85;;;;;27.40;100945.00;;;;10130873;29;20204;-77
2023/07/19 08:11:18;;;;;;;5.00;1.95;;;;;27.00;100947.00;;;;10137038;29;20214;-75
2023/07/19 08:16:20;;;;;;;8.07;1.90;;;;;26.70;100933.00;;;;10121859;29;20323;-75
2023/07/19 08:21:23;;;;;;;5.07;1.83;;;;;25.60;100918.00;;;;10122745;29;20223;-75
2023/07/19 08:26:38;;;;;;;1.95;1.20;;;;;25.70;100929.00;;;;10119738;29;20211;-76
2023/07/19 08:31:39;;;;;;;2.15;1.20;;;;;25.60;100927.00;;;;10118348;29;20203;-76
2023/07/19 08:36:40;;;;;;;4.88;1.20;;;;;25.50;100925.00;;;;10137296;29;20566;-75
2023/07/19 08:41:43;;;;;;;3.33;1.33;;;;;26.00;100929.00;;;;10143093;29;20222;-75
2023/07/19 08:46:46;;;;;;;3.20;1.17;;;;;26.30;100927.00;;;;10117609;29;20325;-76
2023/07/19 08:51:47;;;;;;;3.15;1.20;;;;;27.70;100925.00;;;;10131234;29;20658;-75
2023/07/19 08:56:49;;;;;;;3.92;1.20;;;;;27.90;100926.00;;;;10134205;29;20207;-76
2023/07/19 09:01:50;;;;;;;3.10;1.10;;;;;28.20;100924.00;;;;10128263;29;20220;-76
2023/07/19 09:06:52;;;;;;;5.07;1.27;;;;;28.50;100910.00;;;;10124425;29;20226;-75
2023/07/19 09:11:53;;;;;;;4.72;1.75;;;;;28.50;100925.00;;;;10108242;29;20208;-76
2023/07/19 09:16:55;;;;;;;3.63;1.35;;;;;28.50;100919.00;;;;10117477;29;20230;-75
2023/07/19 09:21:57;;;;;;;3.53;1.42;;;;;28.40;100914.00;;;;10115057;29;20226;-75
2023/07/19 09:27:00;;;;;;;2.80;1.38;;;;;27.90;100911.00;;;;10131692;29;20238;-75
2023/07/19 09:32:02;;;;;;;4.65;1.23;;;;;27.80;100917.00;;;;10123706;29;20219;-75
2023/07/19 09:37:04;;;;;;;2.92;1.33;;;;;29.60;100913.00;;;;10134461;29;20234;-75
2023/07/19 09:42:08;;;;;;;4.03;1.40;;;;;29.50;100924.00;;;;10137885;29;20240;-74
2023/07/19 09:47:10;;;;;;;3.88;1.35;;;;;30.40;100920.00;;;;10118141;29;20222;-77
2023/07/19 09:52:29;;;;;;;2.92;1.40;;;;;29.90;100924.00;;;;10144965;29;20263;-75
2023/07/19 09:57:31;;;;;;;2.65;1.02;;;;;27.40;100927.00;;;;10140815;29;20537;-73
2023/07/19 10:02:32;;;;;;;2.85;1.00;;;;;25.50;100915.00;;;;10145155;29;20223;-74
2023/07/19 10:07:35;;;;;;;2.45;0.98;;;;;25.40;100917.00;;;;10136429;29;20286;-73
2023/07/19 10:12:52;;;;;;;3.83;1.15;;;;;25.40;100918.00;;;;10144952;29;20233;-75
2023/07/19 10:17:56;;;;;;;1.38;1.10;;;;;25.80;100924.00;;;;10134045;29;20740;-76
2023/07/19 10:23:03;;;;;;;1.63;1.08;;;;;26.30;100915.00;;;;10135324;29;20259;-75
2023/07/19 10:28:10;;;;;;;1.50;0.70;;;;;28.80;100920.00;;;;10132529;29;20205;-76
2023/07/19 10:33:14;;;;;;;6.82;1.38;;;;;28.60;100921.00;;;;10125269;29;20267;-75
2023/07/19 10:38:26;;;;;;;2.33;0.95;;;;;27.50;100914.00;;;;10108619;29;20255;-74
2023/07/19 10:43:29;;;;;;;2.15;1.05;;;;;25.30;100926.00;;;;10118699;29;20223;-74
2023/07/19 10:48:36;;;;;;;1.80;1.50;;;;;24.00;100926.00;;;;10124743;29;20231;-74
2023/07/19 10:53:56;;;;;;;2.35;1.40;;;;;23.40;100919.00;;;;10117450;29;20216;-73
2023/07/19 10:58:58;;;;;;;1.45;0.93;;;;;23.10;100929.00;;;;10117138;29;20658;-74
2023/07/19 11:04:04;;;;;;;1.10;0.93;;;;;25.10;100921.00;;;;10138780;29;20670;-76
2023/07/19 11:09:07;;;;;;;2.72;1.38;;;;;25.30;100919.00;;;;10121900;29;20211;-74
2023/07/19 11:14:08;;;;;;;2.08;1.60;;;;;24.50;100918.00;;;;10112035;29;20626;-74
2023/07/19 11:19:10;;;;;;;2.47;1.52;;;;;24.60;100924.00;;;;10124403;29;20199;-74
2023/07/19 11:24:13;;;;;;;1.40;1.30;;;;;25.00;100918.00;;;;10120062;29;20555;-74
2023/07/19 11:29:17;;;;;;;3.08;1.08;;;;;25.50;100898.00;;;;10131494;29;20215;-75
2023/07/19 11:34:19;;;;;;;1.98;1.05;;;;;26.70;100906.00;;;;10119003;29;20210;-74
2023/07/19 11:39:24;;;;;;;1.70;1.13;;;;;26.30;100907.00;;;;10121505;29;20291;-75
2023/07/19 11:44:26;;;;;;;3.33;1.10;;;;;26.80;100913.00;;;;10129983;29;20223;-76
2023/07/19 11:49:27;;;;;;;1.40;1.02;;;;;26.60;100907.00;;;;10123226;29;20216;-76
2023/07/19 11:54:28;;;;;;;2.40;1.15;;;;;24.90;100911.00;;;;10137803;29;20282;-76
2023/07/19 11:59:30;;;;;;;3.65;1.17;;;;;24.30;100918.00;;;;10124901;29;20203;-76
2023/07/19 12:04:31;;;;;;;3.33;1.20;;;;;25.40;100913.00;;;;10125789;29;20624;-75
2023/07/19 12:09:32;;;;;;;2.85;1.40;;;;;26.70;100908.00;;;;10124596;29;20726;-76
2023/07/19 12:14:34;;;;;;;3.75;1.30;;;;;27.90;100918.00;;;;10111965;29;20464;-76
2023/07/19 12:19:35;;;;;;;2.60;1.33;;;;;27.60;100927.00;;;;10148274;29;20606;-77
2023/07/19 12:24:40;;;;;;;3.38;1.52;;;;;28.00;100925.00;;;;10155400;29;20219;-75
2023/07/19 12:29:42;;;;;;;6.47;1.67;;;;;28.20;100925.00;;;;10113086;29;20574;-76
2023/07/19 12:35:00;;;;;;;3.72;1.45;;;;;26.60;100933.00;;;;10119247;29;20226;-77
2023/07/19 12:40:05;;;;;;;2.58;1.25;;;;;25.30;100940.00;;;;10115192;29;20260;-75
2023/07/19 12:45:09;;;;;;;3.47;1.70;;;;;24.30;100937.00;;;;10118223;29;20601;-76
2023/07/19 12:50:11;;;;;;;4.38;1.70;;;;;23.50;100941.00;;;;10125724;29;20207;-76
2023/07/19 12:55:13;;;;;;;3.65;1.70;;;;;23.50;100937.00;;;;10128982;29;20692;-75
2023/07/19 13:00:14;;;;;;;2.00;1.20;;;;;24.30;100920.00;;;;10115195;29;20678;-75
2023/07/19 13:05:16;;;;;;;6.50;2.22;;;;;25.50;100921.00;;;;10149368;29;20234;-77
2023/07/19 13:10:17;;;;;;;3.55;1.70;;;;;27.60;100920.00;;;;10130771;29;20207;-76
2023/07/19 13:15:18;;;;;;;5.43;1.45;;;;;28.20;100918.00;;;;10126121;29;20638;-75
2023/07/19 13:20:20;;;;;;;1.42;1.10;;;;;28.20;100917.00;;;;10120260;29;21921;-75
2023/07/19 13:25:21;;;;;;;3.30;1.60;;;;;27.80;100917.00;;;;10144972;29;20769;-76
2023/07/19 13:30:22;;;;;;;2.33;1.77;;;;;28.30;100914.00;;;;10139204;29;20636;-76
2023/07/19 13:35:25;;;;;;;3.42;1.65;;;;;28.10;100914.00;;;;10164430;29;20211;-76
2023/07/19 13:40:30;;;;;;;3.42;1.50;;;;;29.10;100918.00;;;;10132848;29;20298;-76
2023/07/19 13:45:33;;;;;;;4.57;1.70;;;;;28.50;100907.00;;;;10121655;29;20218;-76
2023/07/19 13:50:36;;;;;;;5.50;1.70;;;;;28.20;100902.00;;;;10149783;29;20239;-76
2023/07/19 13:55:37;;;;;;;2.28;1.17;;;;;28.70;100899.00;;;;10137034;29;20211;-76
2023/07/19 14:00:39;;;;;;;1.67;1.00;;;;;28.80;100905.00;;;;10131292;29;20298;-76
2023/07/19 14:05:40;;;;;;;2.78;1.13;;;;;28.20;100914.00;;;;10129519;29;20239;-76
2023/07/19 14:10:41;;;;;;;2.95;1.58;;;;;27.40;100919.00;;;;10109722;29;20516;-77
2023/07/19 14:15:43;;;;;;;5.07;1.40;;;;;27.40;100916.00;;;;10119125;29;20286;-77
2023/07/19 14:21:04;;;;;;;4.20;1.25;;;;;27.80;100914.00;;;;10124810;29;20223;-76
2023/07/19 14:26:08;;;;;;;4.07;1.27;;;;;28.00;100910.00;;;;10126661;29;20303;-77
2023/07/19 14:31:10;;;;;;;3.35;1.25;;;;;27.60;100912.00;;;;10129531;29;20211;-76
2023/07/19 14:36:15;;;;;;;2.17;1.30;;;;;27.20;100913.00;;;;10120527;29;20211;-75
2023/07/19 14:41:17;;;;;;;3.63;1.60;;;;;25.60;100917.00;;;;10126479;29;20228;-76
2023/07/19 14:46:18;;;;;;;5.38;1.85;;;;;25.30;100917.00;;;;10119432;29;20199;-76
2023/07/19 14:51:20;;;;;;;2.45;1.70;;;;;24.80;100924.00;;;;10114603;29;20230;-75
2023/07/19 14:56:22;;;;;;;3.00;1.50;;;;;25.30;100917.00;;;;10113359;29;20203;-75
2023/07/19 15:01:24;;;;;;;4.63;1.67;;;;;26.40;100924.00;;;;10138105;29;20244;-75
2023/07/19 15:06:25;;;;;;;2.88;2.08;;;;;26.10;100921.00;;;;10119255;29;20203;-76
2023/07/19 15:11:27;;;;;;;4.32;2.05;;;;;25.80;100927.00;;;;10139091;29;20207;-76
2023/07/19 15:16:29;;;;;;;3.58;1.90;;;;;25.30;100915.00;;;;10124077;29;20223;-76
2023/07/19 15:21:30;;;;;;;2.63;1.75;;;;;24.60;100921.00;;;;10126780;29;20682;-76
2023/07/19 15:26:34;;;;;;;5.15;2.53;;;;;24.10;100925.00;;;;10112525;29;20275;-76
2023/07/19 15:31:37;;;;;;;5.25;2.50;;;;;24.40;100922.00;;;;10141451;29;20519;-76
2023/07/19 15:36:39;;;;;;;5.15;2.40;;;;;24.20;100924.00;;;;10125213;29;20729;-77
2023/07/19 15:41:40;;;;;;;4.40;2.22;;;;;24.40;100910.00;;;;10128455;29;20239;-75
2023/07/19 15:46:41;;;;;;;3.40;2.17;;;;;27.10;100905.00;;;;10127737;29;20906;-76
2023/07/19 15:51:43;;;;;;;7.53;2.72;;;;;26.50;100918.00;;;;10135546;29;20210;-76
2023/07/19 15:56:44;;;;;;;3.08;1.98;;;;;25.70;100917.00;;;;10101984;29;20210;-75
2023/07/19 16:01:45;;;;;;;5.70;2.55;;;;;24.90;100905.00;;;;10137747;29;20646;-77
2023/07/19 16:06:47;;;;;;;5.00;2.00;;;;;24.40;100910.00;;;;10118973;29;20208;-75
2023/07/19 16:11:48;;;;;;;3.67;2.25;;;;;23.70;100914.00;;;;10115306;29;20207;-77
2023/07/19 16:16:50;;;;;;;4.18;2.00;;;;;23.40;100913.00;;;;10124978;29;20615;-76
2023/07/19 16:21:51;;;;;;;3.35;2.20;;;;;23.70;100919.00;;;;10119528;29;20223;-75
2023/07/19 16:26:56;;;;;;;7.35;1.98;;;;;24.10;100921.00;;;;10122699;29;20204;-77
2023/07/19 16:31:58;;;;;;;3.80;1.83;;;;;24.00;100926.00;;;;10116736;29;20263;-75
2023/07/19 16:36:59;;;;;;;4.72;2.08;;;;;23.60;100934.00;;;;10115447;29;20290;-76
2023/07/19 16:42:03;;;;;;;6.05;2.38;;;;;23.70;100922.00;;;;10128447;29;20215;-75
2023/07/19 16:47:05;;;;;;;4.50;2.00;;;;;23.70;100926.00;;;;10132195;29;20231;-76
2023/07/19 16:52:11;;;;;;;1.95;1.40;;;;;23.60;100918.00;;;;10120500;29;20310;-76
2023/07/19 16:57:14;;;;;;;2.25;1.50;;;;;23.30;100924.00;;;;10124249;29;20211;-77
2023/07/19 17:02:15;;;;;;;3.83;1.83;;;;;23.30;100922.00;;;;10118585;29;20231;-77
2023/07/19 17:07:16;;;;;;;1.90;1.40;;;;;23.60;100918.00;;;;10122687;29;20236;-76
2023/07/19 17:12:18;;;;;;;4.32;1.83;;;;;23.40;100924.00;;;;10122690;29;20224;-76
2023/07/19 17:17:19;;;;;;;4.15;1.80;;;;;23.30;100928.00;;;;10121977;29;20571;-76
2023/07/19 17:22:21;;;;;;;4.68;1.85;;;;;23.10;100924.00;;;;10127092;29;20757;-75
2023/07/19 17:27:22;;;;;;;2.88;1.67;;;;;22.80;100931.00;;;;10119201;29;20211;-77
2023/07/19 17:32:24;;;;;;;1.60;1.50;;;;;22.60;100927.00;;;;10132590;29;20231;-77
2023/07/19 17:37:26;;;;;;;5.82;1.75;;;;;22.40;100931.00;;;;10095315;29;20236;-77
2023/07/19 17:42:27;;;;;;;1.50;1.13;;;;;22.30;100927.00;;;;10096631;29;20311;-76
2023/07/19 17:47:29;;;;;;;2.58;1.20;;;;;22.30;100931.00;;;;10108089;29;20251;-76
2023/07/19 17:52:31;;;;;;;2.70;1.70;;;;;22.10;100936.00;;;;10116601;29;20232;-76
2023/07/19 17:57:33;;;;;;;2.28;1.35;;;;;22.00;100938.00;;;;10131954;29;20210;-77
2023/07/19 18:02:34;;;;;;;3.30;1.30;;;;;22.00;100939.00;;;;10134303;29;20247;-77
2023/07/19 18:07:36;;;;;;;2.95;1.38;;;;;21.90;100936.00;;;;10134367;29;20199;-76
2023/07/19 18:12:37;;;;;;;2.25;1.30;;;;;21.70;100924.00;;;;10132630;29;20228;-76
2023/07/19 18:17:38;;;;;;;3.03;1.50;;;;;21.50;100924.00;;;;10128176;29;20570;-76
2023/07/19 18:22:40;;;;;;;3.97;1.85;;;;;21.80;100919.00;;;;10125600;29;20218;-77
2023/07/19 18:27:41;;;;;;;4.05;1.75;;;;;21.70;100927.00;;;;10150649;29;20674;-76
2023/07/19 18:32:43;;;;;;;5.60;1.40;;;;;21.50;100931.00;;;;10106405;29;20203;-76
2023/07/19 18:37:44;;;;;;;2.33;1.45;;;;;21.30;100930.00;;;;10104657;29;20211;-76
2023/07/19 18:42:45;;;;;;;3.70;1.88;;;;;21.00;100927.00;;;;10134778;29;20251;-76
2023/07/19 18:47:47;;;;;;;2.63;1.75;;;;;21.00;100920.00;;;;10116689;29;20203;-76
2023/07/19 18:52:48;;;;;;;3.65;1.88;;;;;21.00;100929.00;;;;10114626;29;20607;-75
2023/07/19 18:57:50;;;;;;;5.15;2.03;;;;;20.80;100932.00;;;;10126958;29;20222;-76
2023/07/19 19:02:51;;;;;;;2.83;1.60;;;;;20.60;100930.00;;;;10132067;29;20313;-74
2023/07/19 19:07:53;;;;;;;6.15;1.80;;;;;20.40;100932.00;;;;10134209;29;20203;-73
2023/07/19 19:12:54;;;;;;;4.35;2.10;;;;;20.30;100935.00;;;;10124338;29;20708;-73
2023/07/19 19:17:55;;;;;;;2.85;1.77;;;;;20.20;100937.00;;;;10106898;29;20583;-74
2023/07/19 19:22:57;;;;;;;2.22;1.58;;;;;20.10;100936.00;;;;10131110;29;20251;-74
2023/07/19 19:27:59;;;;;;;5.93;2.20;;;;;20.10;100935.00;;;;10142052;29;20644;-74
2023/07/19 19:33:00;;;;;;;4.60;2.13;;;;;20.00;100940.00;;;;10136004;29;20207;-74
2023/07/19 19:38:02;;;;;;;7.57;2.00;;;;;20.00;100943.00;;;;10141835;29;20215;-74
2023/07/19 19:43:03;;;;;;;6.40;2.28;;;;;19.90;100933.00;;;;10134537;29;20826;-74
2023/07/19 19:48:05;;;;;;;6.25;2.30;;;;;19.70;100933.00;;;;10098705;29;20215;-73
2023/07/19 19:53:06;;;;;;;4.00;2.20;;;;;19.40;100950.00;;;;10141502;29;20208;-75
2023/07/19 19:58:13;;;;;;;5.50;2.22;;;;;19.40;100947.00;;;;10132257;29;20623;-74
2023/07/19 20:03:14;;;;;;;7.03;2.33;;;;;19.40;100954.00;;;;10136718;29;20259;-74
2023/07/19 20:08:19;;;;;;;8.82;3.05;;;;;19.30;100974.00;;;;10119468;29;20203;-77
2023/07/19 20:13:20;;;;;;;14.52;3.38;;;;;18.40;100989.00;;;;10127113;29;20218;-75
2023/07/19 20:18:22;;;;;;;8.55;3.10;;;;;17.40;101002.00;;;;10109312;29;20196;-75
2023/07/19 20:23:23;;;;;;;10.23;2.90;;;;;17.00;101018.00;;;;10135613;29;20385;-75
2023/07/19 20:28:27;;;;;;;4.32;2.97;;;;;16.90;100999.00;;;;10126626;29;20578;-75
2023/07/19 20:33:29;;;;;;;10.98;3.47;;;;;16.90;101010.00;;;;10137599;29;20204;-75
2023/07/19 20:38:30;;;;;;;6.03;3.15;;;;;16.80;101019.00;;;;10138086;29;20290;-74
2023/07/19 20:43:35;;;;;;;8.20;3.47;;;;;16.70;101031.00;;;;10135452;29;20694;-74
2023/07/19 20:48:36;;;;;;;9.65;3.92;;;;;16.70;101025.00;;;;10136064;29;20202;-74
2023/07/19 20:53:41;;;;;;;6.25;3.65;;;;;16.70;101008.00;;;;10136822;29;20207;-72
2023/07/19 20:58:42;;;;;;;10.43;4.10;;;;;16.70;101022.00;;;;10136162;29;20622;-73
2023/07/19 21:03:44;;;;;;;9.27;4.18;;;;;16.60;101018.00;;;;10136973;29;20222;-73
2023/07/19 21:08:45;;;;;;;8.38;4.13;;;;;16.60;101017.00;;;;10137674;29;20195;-74
2023/07/19 21:13:47;;;;;;;5.82;4.22;;;;;16.50;101022.00;;;;10137216;29;20269;-74
2023/07/19 21:18:48;;;;;;;7.00;4.93;;;;;16.60;101019.00;;;;10135662;29;20202;-74
2023/07/19 21:23:50;;;;;;;7.40;4.50;;;;;16.60;101015.00;;;;10135562;29;20227;-74
2023/07/19 21:28:51;;;;;;;7.03;4.25;;;;;16.50;101012.00;;;;10133485;29;20616;-75
2023/07/19 21:33:57;;;;;;;9.80;4.07;;;;;16.40;101010.00;;;;10118940;29;20196;-74
2023/07/19 21:38:58;;;;;;;6.93;4.93;;;;;16.30;101015.00;;;;10105091;29;20207;-75
2023/07/19 21:43:59;;;;;;;10.30;4.97;;;;;16.30;101012.00;;;;10135207;29;20223;-73
2023/07/19 21:49:02;;;;;;;11.15;5.00;;;;;16.30;101011.00;;;;10133679;29;20674;-75
2023/07/19 21:54:04;;;;;;;8.70;5.00;;;;;16.20;100999.00;;;;10103968;29;20295;-74
2023/07/19 21:59:06;;;;;;;8.32;4.57;;;;;16.00;101004.00;;;;10104431;29;20659;-75
2023/07/19 22:04:07;;;;;;;7.53;4.20;;;;;15.90;101004.00;;;;10118692;29;20228;-75
2023/07/19 22:09:08;;;;;;;13.43;5.40;;;;;15.80;101002.00;;;;10136328;29;20207;-74
2023/07/19 22:14:10;;;;;;;9.23;4.82;;;;;15.70;101011.00;;;;10122583;29;20215;-74
2023/07/19 22:19:13;;;;;;;8.57;5.40;;;;;15.70;101000.00;;;;10121652;29;20212;-74
2023/07/19 22:24:14;;;;;;;8.77;4.20;;;;;15.60;101011.00;;;;10101772;29;20310;-73
2023/07/19 22:29:15;;;;;;;9.57;4.40;;;;;15.60;101009.00;;;;10102297;29;20207;-74
2023/07/19 22:34:17;;;;;;;7.60;3.97;;;;;15.50;101013.00;;;;10101123;29;20193;-74
2023/07/19 22:39:18;;;;;;;7.63;4.03;;;;;15.40;101006.00;;;;10090480;29;20654;-74
2023/07/19 22:44:19;;;;;;;7.47;4.47;;;;;15.30;101010.00;;;;10102056;29;20224;-74
2023/07/19 22:49:21;;;;;;;6.57;4.33;;;;;15.20;101000.00;;;;10155559;29;20258;-74
2023/07/19 22:54:22;;;;;;;6.87;3.73;;;;;15.20;101013.00;;;;10148657;29;20729;-74
2023/07/19 22:59:24;;;;;;;10.67;5.17;;;;;15.10;101009.00;;;;10133820;29;20573;-75
2023/07/19 23:04:25;;;;;;;10.57;4.57;;;;;15.10;101013.00;;;;10133231;29;20247;-74
2023/07/19 23:09:27;;;;;;;9.17;4.03;;;;;15.00;100999.00;;;;10134876;29;20203;-74
2023/07/19 23:14:28;;;;;;;9.70;5.03;;;;;15.00;101000.00;;;;10128814;29;20251;-74
2023/07/19 23:19:29;;;;;;;6.87;4.27;;;;;15.00;101001.00;;;;10109585;29;20209;-74
2023/07/19 23:24:35;;;;;;;9.47;5.10;;;;;15.00;101004.00;;;;10133540;29;20302;-74
2023/07/19 23:29:38;;;;;;;9.97;4.67;;;;;15.00;101008.00;;;;10134299;29;20295;-74
2023/07/19 23:34:39;;;;;;;6.57;4.30;;;;;15.10;101003.00;;;;10125649;29;20271;-73
2023/07/19 23:39:40;;;;;;;11.53;5.17;;;;;15.10;101000.00;;;;10171176;29;20198;-74
2023/07/19 23:44:42;;;;;;;6.60;4.80;;;;;15.20;101001.00;;;;10108665;29;20245;-74
2023/07/19 23:49:43;;;;;;;7.77;4.17;;;;;15.30;100999.00;;;;10107409;29;21010;-75
2023/07/19 23:54:45;;;;;;;7.07;4.23;;;;;15.30;100996.00;;;;10111805;29;20220;-76
2023/07/19 23:59:46;;;;;;;10.37;4.13;;;;;15.30;101000.00;;;;10112293;29;20215;-75
